createdAt,value
2019-03-24T00:00:36.774Z,101400.85
2019-03-24T00:03:03.477Z,101391.08
2019-03-24T00:05:30.154Z,101395.59
2019-03-24T00:07:56.999Z,101396.02
2019-03-24T00:10:23.711Z,101394.78
2019-03-24T00:12:50.331Z,101395.44
2019-03-24T00:15:25.825Z,101400.69
2019-03-24T00:17:45.378Z,101397.64
2019-03-24T00:20:12.871Z,101397.02
2019-03-24T00:22:39.528Z,101404.00
2019-03-24T00:25:06.614Z,101403.19
2019-03-24T00:27:33.402Z,101394.10
2019-03-24T00:30:00.050Z,101391.52
2019-03-24T00:32:27.399Z,101391.52
2019-03-24T00:34:54.083Z,101394.88
2019-03-24T00:37:20.799Z,101401.95
2019-03-24T00:40:43.511Z,101399.03
2019-03-24T00:43:10.626Z,101405.77
2019-03-24T00:45:37.409Z,101411.84
2019-03-24T00:48:04.325Z,101419.02
2019-03-24T00:50:30.954Z,101409.41
2019-03-24T00:52:59.521Z,101423.23
2019-03-24T00:55:26.090Z,101416.05
2019-03-24T00:57:52.848Z,101422.60
2019-03-24T01:00:25.245Z,101420.08
2019-03-24T01:02:51.861Z,101424.25
2019-03-24T01:05:18.651Z,101424.77
2019-03-24T01:07:45.416Z,101422.83
2019-03-24T01:10:12.493Z,101426.73
2019-03-24T01:12:39.060Z,101425.69
2019-03-24T01:15:07.467Z,101432.48
2019-03-24T01:17:34.869Z,101434.09
2019-03-24T01:20:01.826Z,101437.52
2019-03-24T01:22:28.663Z,101440.08
2019-03-24T01:24:55.350Z,101440.26
2019-03-24T01:27:21.929Z,101444.16
2019-03-24T01:29:48.713Z,101448.24
2019-03-24T01:32:15.293Z,101450.94
2019-03-24T01:34:41.971Z,101444.84
2019-03-24T01:37:08.803Z,101447.73
2019-03-24T01:39:35.365Z,101443.64
2019-03-24T01:42:02.011Z,101444.25
2019-03-24T01:44:28.799Z,101443.48
2019-03-24T01:46:55.462Z,101452.30
2019-03-24T01:49:22.229Z,101450.77
2019-03-24T01:51:48.842Z,101453.72
2019-03-24T01:54:15.524Z,101463.81
2019-03-24T01:56:42.291Z,101462.52
2019-03-24T01:59:08.896Z,101463.95
2019-03-24T02:01:35.686Z,101463.43
2019-03-24T02:04:02.496Z,101465.89
2019-03-24T02:06:29.206Z,101474.34
2019-03-24T02:08:55.871Z,101467.35
2019-03-24T02:11:22.463Z,101466.09
2019-03-24T02:13:49.243Z,101467.20
2019-03-24T02:16:15.931Z,101477.73
2019-03-24T02:18:42.651Z,101469.48
2019-03-24T02:21:09.304Z,101474.80
2019-03-24T02:23:35.894Z,101472.86
2019-03-24T02:26:02.493Z,101486.20
2019-03-24T02:28:29.224Z,101492.25
2019-03-24T02:30:55.827Z,101491.55
2019-03-24T02:33:22.450Z,101490.02
2019-03-24T02:35:49.137Z,101496.31
2019-03-24T02:38:15.760Z,101497.53
2019-03-24T02:40:42.483Z,101506.33
2019-03-24T02:43:09.113Z,101491.73
2019-03-24T02:45:35.784Z,101495.09
2019-03-24T02:48:02.623Z,101501.84
2019-03-24T02:50:29.265Z,101501.03
2019-03-24T02:52:55.872Z,101504.09
2019-03-24T02:55:22.610Z,101505.50
2019-03-24T02:57:49.192Z,101506.07
2019-03-24T03:00:16.365Z,101496.98
2019-03-24T03:02:43.286Z,101503.81
2019-03-24T03:05:10.174Z,101496.56
2019-03-24T03:07:38.111Z,101490.04
2019-03-24T03:10:07.496Z,101496.09
2019-03-24T03:12:34.256Z,101488.66
2019-03-24T03:15:00.848Z,101501.77
2019-03-24T03:17:27.678Z,101497.06
2019-03-24T03:19:54.306Z,101503.61
2019-03-24T03:22:21.054Z,101501.91
2019-03-24T03:24:47.751Z,101505.96
2019-03-24T03:27:14.440Z,101501.22
2019-03-24T03:29:41.031Z,101508.20
2019-03-24T03:32:07.601Z,101502.94
2019-03-24T03:35:30.640Z,101514.81
2019-03-24T03:37:57.294Z,101512.30
2019-03-24T03:40:23.930Z,101506.64
2019-03-24T03:42:50.492Z,101515.83
2019-03-24T03:45:22.814Z,101508.48
2019-03-24T03:47:49.521Z,101499.41
2019-03-24T03:50:16.515Z,101494.70
2019-03-24T03:52:43.250Z,101496.42
2019-03-24T03:55:10.242Z,101500.72
2019-03-24T03:57:36.940Z,101501.66
2019-03-24T04:00:07.775Z,101498.20
2019-03-24T04:02:34.589Z,101501.25
2019-03-24T04:05:05.053Z,101511.32
2019-03-24T04:07:31.830Z,101507.78
2019-03-24T04:09:58.441Z,101524.45
2019-03-24T04:12:25.156Z,101517.03
2019-03-24T04:14:51.771Z,101511.70
2019-03-24T04:17:18.469Z,101513.90
2019-03-24T04:19:45.036Z,101514.80
2019-03-24T04:22:11.739Z,101520.06
2019-03-24T04:24:38.496Z,101529.13
2019-03-24T04:27:05.066Z,101531.35
2019-03-24T04:29:31.683Z,101534.42
2019-03-24T04:31:58.616Z,101527.39
2019-03-24T04:35:21.766Z,101528.70
2019-03-24T04:37:48.503Z,101519.98
2019-03-24T04:40:15.222Z,101528.59
2019-03-24T04:42:41.786Z,101526.95
2019-03-24T04:45:08.907Z,101526.06
2019-03-24T04:47:35.616Z,101515.49
2019-03-24T04:50:06.838Z,101515.97
2019-03-24T04:52:33.716Z,101524.28
2019-03-24T04:55:00.342Z,101521.27
2019-03-24T04:57:26.995Z,101533.91
2019-03-24T04:59:53.572Z,101527.36
2019-03-24T05:02:20.478Z,101533.89
2019-03-24T05:04:48.264Z,101531.73
2019-03-24T05:07:16.654Z,101533.92
2019-03-24T05:09:44.972Z,101537.39
2019-03-24T05:12:11.577Z,101532.66
2019-03-24T05:14:38.156Z,101539.63
2019-03-24T05:17:04.872Z,101542.27
2019-03-24T05:19:31.430Z,101546.59
2019-03-24T05:21:58.001Z,101551.80
2019-03-24T05:24:24.651Z,101550.57
2019-03-24T05:26:51.334Z,101550.52
2019-03-24T05:29:17.951Z,101543.09
2019-03-24T05:31:44.558Z,101542.72
2019-03-24T05:34:11.445Z,101540.91
2019-03-24T05:36:38.212Z,101548.28
2019-03-24T05:39:08.837Z,101544.38
2019-03-24T05:41:35.589Z,101551.32
2019-03-24T05:44:02.551Z,101546.92
2019-03-24T05:46:29.315Z,101550.84
2019-03-24T05:48:55.891Z,101548.65
2019-03-24T05:51:22.623Z,101546.84
2019-03-24T05:53:49.161Z,101548.06
2019-03-24T05:56:15.773Z,101551.66
2019-03-24T05:58:43.578Z,101552.94
2019-03-24T06:01:10.240Z,101551.59
2019-03-24T06:03:36.972Z,101544.56
2019-03-24T06:06:03.748Z,101550.95
2019-03-24T06:08:30.424Z,101551.89
2019-03-24T06:10:57.071Z,101545.59
2019-03-24T06:13:23.667Z,101551.78
2019-03-24T06:15:50.278Z,101552.98
2019-03-24T06:18:16.841Z,101557.62
2019-03-24T06:20:43.582Z,101551.52
2019-03-24T06:23:10.293Z,101543.43
2019-03-24T06:25:36.840Z,101548.20
2019-03-24T06:28:59.689Z,101551.34
2019-03-24T06:31:27.593Z,101542.35
2019-03-24T06:33:54.355Z,101551.42
2019-03-24T06:36:20.908Z,101556.95
2019-03-24T06:38:47.518Z,101551.63
2019-03-24T06:41:14.074Z,101555.33
2019-03-24T06:43:40.631Z,101555.26
2019-03-24T06:46:07.296Z,101554.96
2019-03-24T06:48:34.029Z,101544.56
2019-03-24T06:51:00.623Z,101551.86
2019-03-24T06:53:27.195Z,101552.45
2019-03-24T06:55:53.795Z,101551.14
2019-03-24T06:58:20.399Z,101559.91
2019-03-24T07:00:47.077Z,101553.50
2019-03-24T07:03:13.693Z,101553.95
2019-03-24T07:05:40.518Z,101552.50
2019-03-24T07:08:09.876Z,101549.45
2019-03-24T07:10:36.540Z,101555.53
2019-03-24T07:13:03.273Z,101554.98
2019-03-24T07:15:29.936Z,101552.43
2019-03-24T07:17:56.507Z,101556.23
2019-03-24T07:20:23.160Z,101562.40
2019-03-24T07:22:49.792Z,101561.45
2019-03-24T07:25:16.910Z,101552.81
2019-03-24T07:27:43.760Z,101555.28
2019-03-24T07:30:10.982Z,101548.36
2019-03-24T07:32:37.767Z,101552.31
2019-03-24T07:35:05.857Z,101551.43
2019-03-24T07:37:32.604Z,101545.11
2019-03-24T07:39:59.283Z,101540.27
2019-03-24T07:42:25.982Z,101539.39
2019-03-24T07:44:52.563Z,101542.89
2019-03-24T07:47:19.119Z,101546.78
2019-03-24T07:49:45.833Z,101543.18
2019-03-24T07:52:12.419Z,101548.37
2019-03-24T07:54:41.243Z,101537.12
2019-03-24T07:57:07.759Z,101539.56
2019-03-24T07:59:34.560Z,101529.95
2019-03-24T08:02:01.407Z,101526.28
2019-03-24T08:04:28.309Z,101528.92
2019-03-24T08:06:55.230Z,101532.31
2019-03-24T08:09:22.026Z,101516.70
2019-03-24T08:11:48.631Z,101515.55
2019-03-24T08:14:15.377Z,101516.41
2019-03-24T08:16:41.954Z,101513.73
2019-03-24T08:19:08.679Z,101505.97
2019-03-24T08:21:35.467Z,101511.19
2019-03-24T08:24:02.246Z,101512.29
2019-03-24T08:27:26.449Z,101515.71
2019-03-24T08:29:53.183Z,101514.84
2019-03-24T08:32:19.847Z,101511.59
2019-03-24T08:34:48.359Z,101502.78
2019-03-24T08:37:14.917Z,101513.52
2019-03-24T08:39:41.659Z,101514.50
2019-03-24T08:42:08.584Z,101510.96
2019-03-24T08:44:35.742Z,101505.16
2019-03-24T08:47:03.431Z,101506.52
2019-03-24T08:49:30.271Z,101493.14
2019-03-24T08:51:57.913Z,101498.31
2019-03-24T08:54:24.706Z,101498.09
2019-03-24T08:56:51.549Z,101496.70
2019-03-24T08:59:18.320Z,101481.41
2019-03-24T09:01:44.883Z,101487.28
2019-03-24T09:04:11.736Z,101483.54
2019-03-24T09:07:34.993Z,101474.81
2019-03-24T09:10:02.292Z,101471.09
2019-03-24T09:12:32.595Z,101456.23
2019-03-24T09:14:59.194Z,101455.77
2019-03-24T09:17:25.878Z,101462.37
2019-03-24T09:19:52.678Z,101451.89
2019-03-24T09:22:19.371Z,101450.75
2019-03-24T09:24:45.896Z,101440.65
2019-03-24T09:28:10.216Z,101436.67
2019-03-24T09:30:37.792Z,101443.50
2019-03-24T09:33:06.089Z,101444.46
2019-03-24T09:35:32.944Z,101445.42
2019-03-24T09:38:56.074Z,101444.66
2019-03-24T09:41:22.659Z,101437.25
2019-03-24T09:43:49.417Z,101431.23
2019-03-24T09:46:15.983Z,101425.24
2019-03-24T09:48:42.610Z,101430.53
2019-03-24T09:51:10.413Z,101430.55
2019-03-24T09:53:37.105Z,101440.39
2019-03-24T09:56:05.648Z,101435.12
2019-03-24T09:58:32.206Z,101422.30
2019-03-24T10:00:58.958Z,101423.45
2019-03-24T10:03:25.905Z,101413.41
2019-03-24T10:05:52.572Z,101407.95
2019-03-24T10:08:19.379Z,101399.83
2019-03-24T10:10:46.055Z,101401.58
2019-03-24T10:13:15.481Z,101398.20
2019-03-24T10:15:42.991Z,101389.05
2019-03-24T10:18:10.115Z,101390.55
2019-03-24T10:20:36.752Z,101389.14
2019-03-24T10:23:03.339Z,101384.52
2019-03-24T10:25:30.064Z,101375.97
2019-03-24T10:27:56.675Z,101380.36
2019-03-24T10:30:23.488Z,101374.98
2019-03-24T10:33:46.304Z,101364.05
2019-03-24T10:36:13.017Z,101360.80
2019-03-24T10:38:39.706Z,101364.00
2019-03-24T10:41:06.330Z,101367.45
2019-03-24T10:43:33.055Z,101374.85
2019-03-24T10:45:59.715Z,101355.71
2019-03-24T10:48:33.690Z,101360.61
2019-03-24T10:50:55.002Z,101366.21
2019-03-24T10:53:21.645Z,101369.41
2019-03-24T10:55:48.423Z,101365.98
2019-03-24T10:58:15.681Z,101357.58
2019-03-24T11:00:42.928Z,101343.33
2019-03-24T11:03:10.185Z,101340.20
2019-03-24T11:05:37.155Z,101343.45
2019-03-24T11:08:04.084Z,101362.45
2019-03-24T11:10:30.962Z,101352.85
2019-03-24T11:12:57.683Z,101337.27
2019-03-24T11:15:24.385Z,101340.97
2019-03-24T11:17:50.969Z,101344.55
2019-03-24T11:20:17.865Z,101336.14
2019-03-24T11:22:45.167Z,101333.97
2019-03-24T11:25:12.307Z,101331.58
2019-03-24T11:27:39.089Z,101320.02
2019-03-24T11:30:10.799Z,101322.72
2019-03-24T11:32:39.635Z,101322.50
2019-03-24T11:35:08.776Z,101324.02
2019-03-24T11:37:35.468Z,101319.59
2019-03-24T11:40:06.471Z,101314.78
2019-03-24T11:42:33.028Z,101306.81
2019-03-24T11:44:59.770Z,101299.95
2019-03-24T11:47:27.053Z,101292.53
2019-03-24T11:49:57.049Z,101291.30
2019-03-24T11:52:25.568Z,101276.05
2019-03-24T11:54:52.158Z,101282.41
2019-03-24T11:57:19.150Z,101273.59
2019-03-24T11:59:46.019Z,101276.69
2019-03-24T12:02:13.975Z,101260.69
2019-03-24T12:04:40.589Z,101258.17
2019-03-24T12:07:07.224Z,101258.20
2019-03-24T12:09:33.846Z,101248.33
2019-03-24T12:12:00.516Z,101253.08
2019-03-24T12:14:27.095Z,101259.38
2019-03-24T12:18:08.783Z,101258.31
2019-03-24T12:20:35.614Z,101241.27
2019-03-24T12:23:02.578Z,101232.56
2019-03-24T12:25:29.440Z,101228.66
2019-03-24T12:27:59.406Z,101222.53
2019-03-24T12:30:27.277Z,101208.22
2019-03-24T12:32:54.130Z,101200.34
2019-03-24T12:35:20.686Z,101210.34
2019-03-24T12:37:47.299Z,101202.13
2019-03-24T12:40:14.389Z,101191.38
2019-03-24T12:42:41.141Z,101196.02
2019-03-24T12:45:11.936Z,101192.05
2019-03-24T12:47:38.707Z,101192.69
2019-03-24T12:50:09.613Z,101189.36
2019-03-24T12:52:36.857Z,101179.80
2019-03-24T12:55:05.145Z,101182.86
2019-03-24T12:57:31.802Z,101180.27
2019-03-24T12:59:58.403Z,101170.72
2019-03-24T13:02:24.992Z,101158.47
2019-03-24T13:04:51.707Z,101149.77
2019-03-24T13:07:18.423Z,101155.17
2019-03-24T13:09:45.021Z,101156.91
2019-03-24T13:12:12.930Z,101148.13
2019-03-24T13:14:39.751Z,101149.63
2019-03-24T13:17:06.549Z,101147.73
2019-03-24T13:19:35.893Z,101139.16
2019-03-24T13:22:03.913Z,101138.74
2019-03-24T13:24:32.618Z,101142.11
2019-03-24T13:26:59.662Z,101136.64
2019-03-24T13:29:26.265Z,101132.93
2019-03-24T13:31:53.186Z,101125.69
2019-03-24T13:34:21.778Z,101121.47
2019-03-24T13:36:48.427Z,101132.98
2019-03-24T13:39:15.084Z,101133.84
2019-03-24T13:41:41.684Z,101135.08
2019-03-24T13:44:11.450Z,101126.17
2019-03-24T13:46:38.115Z,101133.25
2019-03-24T13:49:05.040Z,101124.08
2019-03-24T13:51:31.609Z,101119.43
2019-03-24T13:53:58.166Z,101122.51
2019-03-24T13:56:24.899Z,101119.09
2019-03-24T13:59:48.172Z,101117.61
2019-03-24T14:02:15.067Z,101116.98
2019-03-24T14:04:41.711Z,101110.48
2019-03-24T14:07:08.338Z,101117.08
2019-03-24T14:10:31.555Z,101110.38
2019-03-24T14:12:59.012Z,101108.34
2019-03-24T14:15:25.562Z,101111.77
2019-03-24T14:17:52.301Z,101095.95
2019-03-24T14:20:18.917Z,101101.23
2019-03-24T14:22:45.723Z,101095.91
2019-03-24T14:25:12.648Z,101087.57
2019-03-24T14:27:42.472Z,101086.27
2019-03-24T14:30:11.365Z,101090.55
2019-03-24T14:32:38.025Z,101079.11
2019-03-24T14:35:06.168Z,101075.64
2019-03-24T14:37:34.499Z,101066.02
2019-03-24T14:40:03.939Z,101065.02
2019-03-24T14:42:31.710Z,101068.16
2019-03-24T14:44:58.443Z,101064.16
2019-03-24T14:47:25.282Z,101055.44
2019-03-24T14:49:51.846Z,101059.83
2019-03-24T14:52:18.482Z,101059.83
2019-03-24T14:54:45.420Z,101056.17
2019-03-24T14:57:12.217Z,101056.58
2019-03-24T14:59:39.254Z,101058.09
2019-03-24T15:02:06.340Z,101048.38
2019-03-24T15:04:33.062Z,101046.51
2019-03-24T15:07:00.221Z,101049.97
2019-03-24T15:09:30.071Z,101044.13
2019-03-24T15:11:57.204Z,101036.56
2019-03-24T15:14:23.887Z,101041.86
2019-03-24T15:16:50.526Z,101033.42
2019-03-24T15:19:17.097Z,101022.94
2019-03-24T15:21:43.829Z,101031.70
2019-03-24T15:24:10.850Z,101016.27
2019-03-24T15:26:39.502Z,101023.63
2019-03-24T15:29:06.397Z,101022.25
2019-03-24T15:31:32.997Z,101022.34
2019-03-24T15:33:59.676Z,101024.67
2019-03-24T15:36:26.417Z,101023.95
2019-03-24T15:38:53.110Z,101022.31
2019-03-24T15:41:19.788Z,101031.94
2019-03-24T15:43:47.692Z,101031.19
2019-03-24T15:46:14.389Z,101029.73
2019-03-24T15:48:41.065Z,101035.14
2019-03-24T15:51:16.411Z,101026.93
2019-03-24T15:53:36.274Z,101024.73
2019-03-24T15:56:03.288Z,101017.86
2019-03-24T15:58:30.013Z,101020.78
2019-03-24T16:00:56.722Z,101018.56
2019-03-24T16:03:23.328Z,101016.43
2019-03-24T16:05:49.992Z,101023.17
2019-03-24T16:08:16.682Z,101020.77
2019-03-24T16:10:43.553Z,101017.72
2019-03-24T16:13:10.374Z,101018.30
2019-03-24T16:15:37.085Z,101020.88
2019-03-24T16:18:04.021Z,101019.13
2019-03-24T16:20:30.863Z,101006.39
2019-03-24T16:22:57.581Z,101010.63
2019-03-24T16:25:24.221Z,101004.13
2019-03-24T16:28:47.347Z,101004.85
2019-03-24T16:31:14.711Z,101003.30
2019-03-24T16:33:41.449Z,101001.73
2019-03-24T16:36:08.034Z,100999.70
2019-03-24T16:38:34.626Z,100997.15
2019-03-24T16:41:04.359Z,100995.88
2019-03-24T16:43:31.402Z,100990.00
2019-03-24T16:45:59.203Z,100991.67
2019-03-24T16:48:36.197Z,100984.49
2019-03-24T16:50:54.620Z,100989.84
2019-03-24T16:53:21.195Z,100990.07
2019-03-24T16:55:47.767Z,100987.24
2019-03-24T16:59:13.895Z,100983.17
2019-03-24T17:01:40.496Z,100986.75
2019-03-24T17:04:07.108Z,100989.08
2019-03-24T17:06:33.878Z,100980.88
2019-03-24T17:09:00.576Z,100980.03
2019-03-24T17:11:27.295Z,100980.48
2019-03-24T17:13:53.951Z,100974.20
2019-03-24T17:16:20.755Z,100969.80
2019-03-24T17:18:47.442Z,100970.73
2019-03-24T17:21:14.209Z,100972.14
2019-03-24T17:23:40.786Z,100974.41
2019-03-24T17:26:07.472Z,100968.69
2019-03-24T17:28:34.117Z,100971.83
2019-03-24T17:31:00.880Z,100963.75
2019-03-24T17:33:27.575Z,100966.89
2019-03-24T17:35:55.442Z,100966.55
2019-03-24T17:38:23.272Z,100965.78
2019-03-24T17:40:49.986Z,100968.96
2019-03-24T17:43:16.834Z,100965.02
2019-03-24T17:45:43.583Z,100963.83
2019-03-24T17:48:10.273Z,100968.95
2019-03-24T17:50:36.952Z,100966.61
2019-03-24T17:53:03.812Z,100964.77
2019-03-24T17:55:31.163Z,100969.13
2019-03-24T17:58:54.356Z,100966.58
2019-03-24T18:01:21.209Z,100968.53
2019-03-24T18:03:48.040Z,100962.32
2019-03-24T18:06:14.766Z,100965.05
2019-03-24T18:08:41.440Z,100959.31
2019-03-24T18:11:08.162Z,100953.41
2019-03-24T18:13:34.886Z,100956.54
2019-03-24T18:16:02.972Z,100956.84
2019-03-24T18:19:26.036Z,100956.31
2019-03-24T18:21:52.674Z,100948.09
2019-03-24T18:24:20.634Z,100944.95
2019-03-24T18:26:47.240Z,100945.13
2019-03-24T18:29:13.889Z,100943.66
2019-03-24T18:31:40.485Z,100946.25
2019-03-24T18:34:07.170Z,100948.23
2019-03-24T18:36:33.773Z,100942.23
2019-03-24T18:39:00.347Z,100934.97
2019-03-24T18:41:28.534Z,100938.19
2019-03-24T18:43:55.274Z,100922.53
2019-03-24T18:46:22.668Z,100919.91
2019-03-24T18:48:49.282Z,100932.08
2019-03-24T18:51:16.080Z,100927.94
2019-03-24T18:53:42.752Z,100924.66
2019-03-24T18:56:09.643Z,100936.94
2019-03-24T18:58:36.317Z,100935.95
2019-03-24T19:01:03.031Z,100923.39
2019-03-24T19:03:29.816Z,100924.82
2019-03-24T19:05:56.450Z,100920.89
2019-03-24T19:08:23.057Z,100923.12
2019-03-24T19:10:50.353Z,100919.77
2019-03-24T19:13:17.140Z,100911.91
2019-03-24T19:15:43.935Z,100906.39
2019-03-24T19:18:10.514Z,100913.12
2019-03-24T19:20:37.259Z,100914.13
2019-03-24T19:23:04.468Z,100906.80
2019-03-24T19:25:31.188Z,100902.72
2019-03-24T19:27:58.075Z,100909.00
2019-03-24T19:30:30.387Z,100905.27
2019-03-24T19:32:57.614Z,100911.87
2019-03-24T19:35:24.739Z,100914.26
2019-03-24T19:37:52.946Z,100905.77
2019-03-24T19:40:25.276Z,100896.96
2019-03-24T19:42:54.027Z,100898.30
2019-03-24T19:45:21.304Z,100898.80
2019-03-24T19:47:47.948Z,100892.33
2019-03-24T19:50:14.760Z,100892.05
2019-03-24T19:52:44.865Z,100889.31
2019-03-24T19:55:10.523Z,100881.04
2019-03-24T19:57:37.235Z,100875.76
2019-03-24T20:00:06.409Z,100872.09
2019-03-24T20:02:33.874Z,100868.52
2019-03-24T20:05:20.663Z,100871.50
2019-03-24T20:07:48.424Z,100867.58
2019-03-24T20:10:15.395Z,100866.63
2019-03-24T20:12:41.983Z,100864.31
2019-03-24T20:15:10.379Z,100856.26
2019-03-24T20:17:38.137Z,100856.14
2019-03-24T20:20:05.419Z,100850.94
2019-03-24T20:22:32.666Z,100849.63
2019-03-24T20:24:59.327Z,100845.89
2019-03-24T20:27:26.342Z,100850.42
2019-03-24T20:29:53.209Z,100847.09
2019-03-24T20:32:20.218Z,100843.06
2019-03-24T20:34:47.232Z,100844.41
2019-03-24T20:37:14.073Z,100844.96
2019-03-24T20:39:40.984Z,100840.91
2019-03-24T20:42:07.785Z,100843.27
2019-03-24T20:44:34.595Z,100845.00
2019-03-24T20:47:05.601Z,100835.31
2019-03-24T20:49:32.239Z,100835.77
2019-03-24T20:51:58.901Z,100833.04
2019-03-24T20:54:25.513Z,100831.69
2019-03-24T20:56:54.251Z,100827.37
2019-03-24T20:59:22.729Z,100827.85
2019-03-24T21:01:49.390Z,100824.78
2019-03-24T21:04:16.173Z,100814.14
2019-03-24T21:06:42.741Z,100816.41
2019-03-24T21:09:09.422Z,100814.36
2019-03-24T21:11:36.441Z,100809.64
2019-03-24T21:14:04.056Z,100805.88
2019-03-24T21:16:30.795Z,100805.75
2019-03-24T21:18:57.396Z,100797.86
2019-03-24T21:21:24.216Z,100794.11
2019-03-24T21:23:51.016Z,100791.12
2019-03-24T21:26:17.729Z,100787.71
2019-03-24T21:28:44.280Z,100786.88
2019-03-24T21:31:11.088Z,100785.66
2019-03-24T21:33:37.953Z,100783.13
2019-03-24T21:36:04.978Z,100780.34
2019-03-24T21:38:32.078Z,100776.52
2019-03-24T21:40:59.016Z,100776.23
2019-03-24T21:43:25.577Z,100774.73
2019-03-24T21:45:52.368Z,100769.56
2019-03-24T21:48:19.101Z,100762.61
2019-03-24T21:50:45.688Z,100762.92
2019-03-24T21:53:12.461Z,100765.87
2019-03-24T21:55:39.191Z,100765.25
2019-03-24T21:58:05.783Z,100754.48
2019-03-24T22:00:35.002Z,100761.33
2019-03-24T22:03:02.615Z,100756.81
2019-03-24T22:05:29.498Z,100748.15
2019-03-24T22:07:56.399Z,100745.56
2019-03-24T22:10:23.174Z,100730.86
2019-03-24T22:12:50.403Z,100739.83
2019-03-24T22:15:17.000Z,100733.56
2019-03-24T22:17:43.567Z,100730.41
2019-03-24T22:20:10.824Z,100737.09
2019-03-24T22:22:37.406Z,100735.37
2019-03-24T22:26:00.646Z,100732.97
2019-03-24T22:28:27.245Z,100727.02
2019-03-24T22:30:54.001Z,100727.16
2019-03-24T22:33:20.702Z,100726.54
2019-03-24T22:35:47.563Z,100726.68
2019-03-24T22:38:14.232Z,100723.73
2019-03-24T22:40:40.822Z,100717.14
2019-03-24T22:43:07.715Z,100719.77
2019-03-24T22:45:34.423Z,100719.67
2019-03-24T22:48:01.172Z,100716.45
2019-03-24T22:50:27.891Z,100711.41
2019-03-24T22:52:54.580Z,100711.91
2019-03-24T22:55:21.398Z,100707.16
2019-03-24T22:57:49.196Z,100702.94
2019-03-24T23:00:18.978Z,100702.10
2019-03-24T23:02:46.667Z,100702.51
2019-03-24T23:05:13.354Z,100704.30
2019-03-24T23:07:40.176Z,100699.53
2019-03-24T23:10:07.263Z,100699.02
2019-03-24T23:12:34.082Z,100691.19
2019-03-24T23:15:00.671Z,100689.04
2019-03-24T23:17:27.444Z,100679.10
2019-03-24T23:19:54.027Z,100673.48
2019-03-24T23:22:20.906Z,100661.78
2019-03-24T23:24:47.901Z,100667.37
2019-03-24T23:27:16.528Z,100663.33
2019-03-24T23:29:43.147Z,100660.06
2019-03-24T23:32:09.842Z,100658.38
2019-03-24T23:34:36.755Z,100654.37
2019-03-24T23:37:59.850Z,100643.91
2019-03-24T23:40:26.507Z,100638.39
2019-03-24T23:42:53.386Z,100643.48
2019-03-24T23:45:20.218Z,100642.91
2019-03-24T23:48:43.216Z,100635.91
2019-03-24T23:51:09.783Z,100635.12
2019-03-24T23:53:36.396Z,100631.61
2019-03-24T23:56:03.201Z,100627.72
2019-03-24T23:58:40.328Z,100617.73
